Time;durP1;ratioP1;P1;durP2;ratioP2;P2;SDS_P1;SDS_P2;PMS_P1;PMS_P2;Temp;Humidity;BMP_temperature;BMP_pressure;BME280_temperature;BME280_humidity;BME280_pressure;Samples;Min_cycle;Max_cycle;Signal;HPM_P1;HPM_P2
2022/03/08 00:01:52;;;;;;;7.87;7.07;;;3.30;99.90;;;;;;5075562;28;20426;-71
2022/03/08 00:04:19;;;;;;;10.63;7.73;;;3.20;99.90;;;;;;5075227;28;20453;-74
2022/03/08 00:06:47;;;;;;;7.90;7.20;;;3.00;99.90;;;;;;5074756;28;20453;-78
2022/03/08 00:09:14;;;;;;;8.20;7.27;;;3.00;99.90;;;;;;5075322;28;20439;-72
2022/03/08 00:11:41;;;;;;;7.87;7.17;;;2.90;99.90;;;;;;5075280;28;20453;-73
2022/03/08 00:14:08;;;;;;;8.00;7.20;;;2.90;99.90;;;;;;5075062;28;20441;-78
2022/03/08 00:16:35;;;;;;;7.77;6.97;;;2.90;99.90;;;;;;5074975;28;20474;-72
2022/03/08 00:19:02;;;;;;;7.93;7.13;;;3.00;99.90;;;;;;5074772;28;20483;-78
2022/03/08 00:21:28;;;;;;;8.37;7.40;;;2.90;99.90;;;;;;5056136;28;20443;-75
2022/03/08 00:23:57;;;;;;;7.90;7.10;;;2.90;99.90;;;;;;5054886;28;20431;-73
2022/03/08 00:26:24;;;;;;;10.23;6.73;;;2.90;99.90;;;;;;5055032;28;20453;-75
2022/03/08 00:28:51;;;;;;;9.33;7.13;;;2.90;99.90;;;;;;5054948;28;20424;-74
2022/03/08 00:31:18;;;;;;;9.03;7.83;;;2.90;99.90;;;;;;5054754;28;20435;-74
2022/03/08 00:33:44;;;;;;;7.67;6.80;;;2.90;99.90;;;;;;5055075;28;20451;-73
2022/03/08 00:36:11;;;;;;;9.70;7.77;;;2.90;99.90;;;;;;5054400;28;20443;-73
2022/03/08 00:38:38;;;;;;;9.63;8.13;;;2.90;99.90;;;;;;5053792;28;20475;-73
2022/03/08 00:41:06;;;;;;;8.73;7.80;;;2.90;99.90;;;;;;5054250;28;20451;-73
2022/03/08 00:43:33;;;;;;;10.70;8.00;;;2.80;99.90;;;;;;5054791;28;20423;-76
2022/03/08 00:46:00;;;;;;;8.83;8.03;;;2.80;99.90;;;;;;5054482;28;20785;-76
2022/03/08 00:48:27;;;;;;;8.13;7.43;;;2.90;99.90;;;;;;5054449;28;20447;-80
2022/03/08 00:50:54;;;;;;;11.03;8.33;;;2.70;99.90;;;;;;5054047;28;20436;-78
2022/03/08 00:53:21;;;;;;;10.10;9.02;;;2.70;99.90;;;;;;5053489;28;20426;-72
2022/03/08 00:55:48;;;;;;;10.50;8.83;;;2.70;99.90;;;;;;5054250;28;20210;-72
2022/03/08 00:58:16;;;;;;;8.73;7.83;;;2.60;99.90;;;;;;5054243;28;21032;-73
2022/03/08 01:00:43;;;;;;;8.90;8.00;;;2.40;99.90;;;;;;5054135;28;20810;-72
2022/03/08 01:03:10;;;;;;;8.47;7.67;;;2.40;99.90;;;;;;5053808;28;20458;-79
2022/03/08 01:05:37;;;;;;;9.67;8.33;;;2.50;99.90;;;;;;5053801;28;20811;-72
2022/03/08 01:08:05;;;;;;;9.00;8.10;;;2.50;99.90;;;;;;5054199;28;20435;-73
2022/03/08 01:10:32;;;;;;;10.80;8.10;;;2.40;99.90;;;;;;5053987;28;20448;-72
2022/03/08 01:13:00;;;;;;;9.10;8.20;;;2.40;99.90;;;;;;5053818;28;20447;-72
2022/03/08 01:15:29;;;;;;;9.53;8.03;;;2.20;99.90;;;;;;5053759;28;21011;-72
2022/03/08 01:17:57;;;;;;;8.00;7.20;;;2.20;99.90;;;;;;5053756;28;20475;-73
2022/03/08 01:20:25;;;;;;;9.87;8.53;;;2.20;99.90;;;;;;5056760;28;20450;-75
2022/03/08 01:22:51;;;;;;;9.00;8.10;;;2.20;99.90;;;;;;5073647;28;20438;-72
2022/03/08 01:25:20;;;;;;;11.53;8.23;;;2.20;99.90;;;;;;5073555;28;20437;-81
2022/03/08 01:27:47;;;;;;;9.70;8.70;;;2.20;99.90;;;;;;5073650;28;20453;-77
2022/03/08 01:30:16;;;;;;;12.63;7.60;;;2.20;99.90;;;;;;5073774;28;20431;-75
2022/03/08 01:32:45;;;;;;;8.67;7.67;;;2.10;99.90;;;;;;5073319;28;20443;-77
2022/03/08 01:35:12;;;;;;;14.20;7.93;;;2.10;99.90;;;;;;5073493;28;20447;-74
2022/03/08 01:37:40;;;;;;;8.67;7.57;;;2.10;99.90;;;;;;5073412;28;20489;-73
2022/03/08 01:40:09;;;;;;;10.13;7.93;;;2.10;99.90;;;;;;5073283;28;20439;-72
2022/03/08 01:42:36;;;;;;;10.43;9.43;;;2.10;99.90;;;;;;5072810;28;20933;-73
2022/03/08 01:45:04;;;;;;;11.17;8.77;;;2.10;99.90;;;;;;5073302;28;20193;-74
2022/03/08 01:47:31;;;;;;;10.73;8.30;;;2.10;99.90;;;;;;5073045;28;20806;-73
2022/03/08 01:50:00;;;;;;;10.03;9.03;;;2.10;99.90;;;;;;5073269;28;20443;-73
2022/03/08 01:52:28;;;;;;;10.37;8.77;;;2.00;99.90;;;;;;5073151;28;20457;-73
2022/03/08 01:54:55;;;;;;;11.23;8.40;;;1.90;99.90;;;;;;5073090;28;20431;-73
2022/03/08 01:57:25;;;;;;;10.90;8.53;;;1.90;99.90;;;;;;5073084;28;20933;-73
2022/03/08 01:59:53;;;;;;;9.37;8.47;;;1.80;99.90;;;;;;5073294;28;20453;-74
2022/03/08 02:02:20;;;;;;;9.50;8.50;;;1.80;99.90;;;;;;5072777;28;20461;-80
2022/03/08 02:04:47;;;;;;;9.93;8.60;;;1.80;99.90;;;;;;5072857;28;20451;-72
2022/03/08 02:07:15;;;;;;;9.63;8.17;;;1.70;99.90;;;;;;5072857;28;20452;-79
2022/03/08 02:09:42;;;;;;;10.20;8.33;;;1.70;99.90;;;;;;5072984;28;20454;-72
2022/03/08 02:12:10;;;;;;;9.53;8.53;;;1.60;99.90;;;;;;5073008;28;20446;-73
2022/03/08 02:14:37;;;;;;;12.27;8.60;;;1.60;99.90;;;;;;5072902;28;20853;-72
2022/03/08 02:17:05;;;;;;;10.07;8.63;;;1.60;99.90;;;;;;5072401;28;20822;-74
2022/03/08 02:19:32;;;;;;;9.47;8.37;;;1.60;99.90;;;;;;5072876;28;20497;-73
2022/03/08 02:22:00;;;;;;;11.23;8.53;;;1.60;99.90;;;;;;5067780;28;20459;-76
2022/03/08 02:24:27;;;;;;;8.70;7.80;;;1.60;99.90;;;;;;5069716;28;20443;-76
2022/03/08 02:26:55;;;;;;;10.63;9.53;;;1.50;99.90;;;;;;5070813;28;20450;-73
2022/03/08 02:29:22;;;;;;;10.07;9.07;;;1.50;99.90;;;;;;5072522;28;20445;-72
2022/03/08 02:31:49;;;;;;;11.25;9.60;;;1.60;99.90;;;;;;5072349;28;20427;-73
2022/03/08 02:34:16;;;;;;;11.40;8.87;;;1.60;99.90;;;;;;5072685;28;20205;-72
2022/03/08 02:36:57;;;;;;;12.20;9.47;;;1.50;99.90;;;;;;5072445;28;20438;-73
2022/03/08 02:39:25;;;;;;;9.97;8.70;;;1.50;99.90;;;;;;5072068;28;20614;-72
2022/03/08 02:41:52;;;;;;;9.90;8.80;;;1.50;99.90;;;;;;5072671;28;20438;-72
2022/03/08 02:44:19;;;;;;;10.50;8.67;;;1.60;99.90;;;;;;5072926;28;20458;-72
2022/03/08 02:46:46;;;;;;;12.90;9.07;;;1.50;99.90;;;;;;5072355;28;20465;-72
2022/03/08 02:49:12;;;;;;;10.57;9.27;;;1.50;99.90;;;;;;5072490;28;20447;-73
2022/03/08 02:51:39;;;;;;;9.33;8.43;;;1.50;99.90;;;;;;5072555;28;20450;-74
2022/03/08 02:54:06;;;;;;;11.10;8.47;;;1.40;99.90;;;;;;5072565;28;20462;-72
2022/03/08 02:56:34;;;;;;;11.60;9.27;;;1.50;99.90;;;;;;5072710;28;20438;-71
2022/03/08 02:59:01;;;;;;;11.53;9.17;;;1.50;99.90;;;;;;5072765;28;20481;-72
2022/03/08 03:01:28;;;;;;;12.70;8.47;;;1.60;99.90;;;;;;5072233;28;20443;-72
2022/03/08 03:03:55;;;;;;;11.13;8.77;;;1.50;99.90;;;;;;5076128;28;20458;-73
2022/03/08 03:06:21;;;;;;;12.27;8.60;;;1.50;99.90;;;;;;5076472;28;20446;-72
2022/03/08 03:08:49;;;;;;;9.30;8.40;;;1.40;99.90;;;;;;5076352;28;20485;-73
2022/03/08 03:11:15;;;;;;;10.83;8.70;;;1.40;99.90;;;;;;5076140;28;20453;-73
2022/03/08 03:13:44;;;;;;;11.83;9.10;;;1.40;99.90;;;;;;5076101;28;20442;-73
2022/03/08 03:16:10;;;;;;;9.00;8.10;;;1.40;99.90;;;;;;5075654;28;20819;-73
2022/03/08 03:18:37;;;;;;;10.13;9.13;;;1.40;99.90;;;;;;5076050;28;20477;-76
2022/03/08 03:21:04;;;;;;;9.40;8.47;;;1.40;99.90;;;;;;5073286;28;20517;-71
2022/03/08 03:23:31;;;;;;;11.60;10.50;;;1.40;99.90;;;;;;5054879;28;20418;-73
2022/03/08 03:25:57;;;;;;;10.90;9.50;;;1.50;99.90;;;;;;5056087;28;20202;-74
2022/03/08 03:28:24;;;;;;;9.60;8.47;;;1.50;99.90;;;;;;5055840;28;20431;-72
2022/03/08 03:30:52;;;;;;;12.03;8.77;;;1.40;99.90;;;;;;5055817;28;20443;-72
2022/03/08 03:33:19;;;;;;;10.27;9.10;;;1.40;99.90;;;;;;5055591;28;20451;-75
2022/03/08 03:35:46;;;;;;;9.73;8.53;;;1.40;99.90;;;;;;5056012;28;20428;-74
2022/03/08 03:38:13;;;;;;;10.83;9.07;;;1.40;99.90;;;;;;5055639;28;20435;-76
2022/03/08 03:40:39;;;;;;;9.47;8.30;;;1.50;99.90;;;;;;5055841;28;20451;-74
2022/03/08 03:43:06;;;;;;;10.40;8.23;;;1.40;99.90;;;;;;5055291;28;20448;-75
2022/03/08 03:45:33;;;;;;;11.50;8.57;;;1.40;99.90;;;;;;5055700;28;20447;-75
2022/03/08 03:48:01;;;;;;;14.43;9.47;;;1.40;99.90;;;;;;5055624;28;20450;-75
2022/03/08 03:50:28;;;;;;;10.80;8.80;;;1.40;99.90;;;;;;5055658;28;20447;-83
2022/03/08 03:52:55;;;;;;;14.43;9.40;;;1.30;99.90;;;;;;5055350;28;20455;-74
2022/03/08 03:55:21;;;;;;;10.27;9.17;;;1.30;99.90;;;;;;5055096;28;20448;-72
2022/03/08 03:57:48;;;;;;;9.67;8.60;;;1.30;99.90;;;;;;5055122;28;20803;-75
2022/03/08 04:00:17;;;;;;;10.30;9.30;;;1.30;99.90;;;;;;5055400;28;20479;-77
2022/03/08 04:02:44;;;;;;;10.43;8.80;;;1.30;99.90;;;;;;5055361;28;20455;-74
2022/03/08 04:05:13;;;;;;;10.37;8.27;;;1.30;99.90;;;;;;5055039;28;20926;-72
2022/03/08 04:07:40;;;;;;;12.60;8.83;;;1.20;99.90;;;;;;5055281;28;20450;-74
2022/03/08 04:10:10;;;;;;;11.63;9.33;;;1.20;99.90;;;;;;5055264;28;20458;-72
2022/03/08 04:12:37;;;;;;;9.83;8.33;;;1.10;99.90;;;;;;5054736;28;20939;-75
2022/03/08 04:15:04;;;;;;;11.13;8.90;;;1.10;99.90;;;;;;5053852;28;20447;-78
2022/03/08 04:17:31;;;;;;;10.47;8.43;;;1.00;99.90;;;;;;5054941;28;20436;-72
2022/03/08 04:19:58;;;;;;;11.13;8.93;;;1.00;99.90;;;;;;5054620;28;20499;-73
2022/03/08 04:22:26;;;;;;;12.40;8.83;;;0.90;99.90;;;;;;5056032;28;20953;-78
2022/03/08 04:24:53;;;;;;;10.47;8.90;;;0.80;99.90;;;;;;5054560;28;20934;-72
2022/03/08 04:27:20;;;;;;;10.87;9.10;;;0.90;99.90;;;;;;5054806;28;20436;-73
2022/03/08 04:29:47;;;;;;;10.63;9.27;;;0.90;99.90;;;;;;5055111;28;20432;-82
2022/03/08 04:32:15;;;;;;;13.33;8.73;;;0.90;99.90;;;;;;5054651;28;20550;-73
2022/03/08 04:34:42;;;;;;;9.30;8.40;;;0.80;99.90;;;;;;5054820;28;20440;-72
2022/03/08 04:37:08;;;;;;;9.47;8.30;;;0.80;99.90;;;;;;5054719;28;20866;-73
2022/03/08 04:39:37;;;;;;;11.27;8.17;;;0.90;99.90;;;;;;5054574;28;20540;-75
2022/03/08 04:42:04;;;;;;;15.13;8.40;;;0.90;99.90;;;;;;5054238;28;20801;-73
2022/03/08 04:44:31;;;;;;;11.97;8.67;;;1.00;99.90;;;;;;5054351;28;20444;-73
2022/03/08 04:46:58;;;;;;;13.23;8.63;;;1.00;99.90;;;;;;5054628;28;20463;-72
2022/03/08 04:49:25;;;;;;;12.10;8.30;;;0.90;99.90;;;;;;5054371;28;20448;-73
2022/03/08 04:51:52;;;;;;;12.23;8.80;;;0.90;99.90;;;;;;5054412;28;20483;-73
2022/03/08 04:54:19;;;;;;;12.87;9.00;;;0.80;99.90;;;;;;5054097;28;20854;-73
2022/03/08 04:56:47;;;;;;;9.50;8.17;;;0.90;99.90;;;;;;5053869;28;20447;-72
2022/03/08 04:59:14;;;;;;;11.40;8.10;;;0.90;99.90;;;;;;5054250;28;20491;-78
2022/03/08 05:01:41;;;;;;;9.07;7.97;;;0.90;99.90;;;;;;5054104;28;20514;-72
2022/03/08 05:04:08;;;;;;;12.00;8.07;;;0.90;99.90;;;;;;5054059;28;20943;-72
2022/03/08 05:06:35;;;;;;;11.07;8.97;;;0.80;99.90;;;;;;5053743;28;20447;-75
2022/03/08 05:09:02;;;;;;;11.70;8.47;;;0.70;99.90;;;;;;5053985;28;20458;-76
2022/03/08 05:11:28;;;;;;;11.03;8.30;;;0.70;99.90;;;;;;5053858;28;20447;-72
2022/03/08 05:13:56;;;;;;;10.17;7.87;;;0.70;99.90;;;;;;5054289;28;20423;-72
2022/03/08 05:16:23;;;;;;;9.40;7.50;;;0.70;99.90;;;;;;5053920;28;20471;-71
2022/03/08 05:18:50;;;;;;;12.27;8.27;;;0.70;99.90;;;;;;5054022;28;20478;-87
2022/03/08 05:21:17;;;;;;;8.97;8.07;;;0.70;99.90;;;;;;5053905;28;20446;-77
2022/03/08 05:23:44;;;;;;;9.47;8.13;;;0.70;99.90;;;;;;5053758;28;20448;-75
2022/03/08 05:26:10;;;;;;;10.57;7.97;;;0.70;99.90;;;;;;5053018;28;20451;-72
2022/03/08 05:28:37;;;;;;;11.17;8.90;;;0.70;99.90;;;;;;5053553;28;20439;-77
2022/03/08 05:31:05;;;;;;;12.37;9.50;;;0.80;99.90;;;;;;5053581;28;20455;-72
2022/03/08 05:33:32;;;;;;;10.67;8.63;;;0.80;99.90;;;;;;5053574;28;20451;-72
2022/03/08 05:35:59;;;;;;;12.20;9.37;;;0.80;99.90;;;;;;5053631;28;20440;-85
2022/03/08 05:38:25;;;;;;;10.47;9.10;;;0.90;99.90;;;;;;5053398;28;20934;-74
2022/03/08 05:40:52;;;;;;;11.43;8.83;;;0.90;99.90;;;;;;5052978;28;20982;-76
2022/03/08 05:43:19;;;;;;;16.53;9.93;;;0.60;99.90;;;;;;5053488;28;20447;-71
2022/03/08 05:45:46;;;;;;;16.63;10.70;;;0.40;99.90;;;;;;5053160;28;20450;-72
2022/03/08 05:48:14;;;;;;;14.37;10.30;;;0.40;99.90;;;;;;5053225;28;20440;-73
2022/03/08 05:50:41;;;;;;;10.83;8.60;;;0.40;99.90;;;;;;5053332;28;20440;-72
2022/03/08 05:53:08;;;;;;;11.15;9.95;;;0.30;99.90;;;;;;5052114;28;20422;-72
2022/03/08 05:55:35;;;;;;;12.47;8.63;;;0.60;99.90;;;;;;5052833;28;20588;-72
2022/03/08 05:58:01;;;;;;;13.47;8.90;;;0.70;99.90;;;;;;5053185;28;20962;-72
2022/03/08 06:00:29;;;;;;;11.70;8.53;;;0.60;99.90;;;;;;5053983;28;20993;-76
2022/03/08 06:02:55;;;;;;;14.43;7.93;;;0.70;99.90;;;;;;5068204;28;21315;-73
2022/03/08 06:05:24;;;;;;;11.80;8.60;;;0.70;99.90;;;;;;5071534;28;20488;-73
2022/03/08 06:07:50;;;;;;;12.93;8.23;;;0.70;99.90;;;;;;5072267;28;20454;-73
2022/03/08 06:10:17;;;;;;;15.13;8.30;;;0.60;99.90;;;;;;5073118;28;20772;-80
2022/03/08 06:12:44;;;;;;;18.50;8.80;;;0.30;99.90;;;;;;5072967;28;20430;-73
2022/03/08 06:15:11;;;;;;;9.10;7.90;;;0.30;99.90;;;;;;5072606;28;20853;-77
2022/03/08 06:17:38;;;;;;;13.43;10.13;;;0.30;99.90;;;;;;5072317;28;20423;-72
2022/03/08 06:20:06;;;;;;;9.50;7.97;;;0.30;99.90;;;;;;5072909;28;20237;-72
2022/03/08 06:22:34;;;;;;;11.03;8.27;;;0.30;99.90;;;;;;5072088;28;20917;-72
2022/03/08 06:25:01;;;;;;;14.10;8.47;;;0.50;99.90;;;;;;5072204;28;20796;-73
2022/03/08 06:27:27;;;;;;;14.23;9.07;;;0.50;99.90;;;;;;5072663;28;20423;-74
2022/03/08 06:29:55;;;;;;;9.03;7.33;;;0.50;99.90;;;;;;5072818;28;20521;-80
2022/03/08 06:32:21;;;;;;;13.07;7.17;;;0.60;99.90;;;;;;5071639;28;20930;-73
2022/03/08 06:34:50;;;;;;;8.47;7.43;;;0.60;99.90;;;;;;5072645;28;20438;-72
2022/03/08 06:37:17;;;;;;;10.70;8.00;;;0.80;99.90;;;;;;5073820;28;20473;-73
2022/03/08 06:39:45;;;;;;;9.40;7.40;;;0.80;99.90;;;;;;5077163;28;20470;-73
2022/03/08 06:42:12;;;;;;;14.68;8.73;;;0.80;99.90;;;;;;5076989;28;20518;-72
2022/03/08 06:44:40;;;;;;;8.57;7.77;;;0.80;99.90;;;;;;5076944;28;20209;-72
2022/03/08 06:47:07;;;;;;;10.00;7.07;;;0.80;99.90;;;;;;5077072;28;20478;-73
2022/03/08 06:49:34;;;;;;;10.27;7.90;;;0.80;99.90;;;;;;5077244;28;20446;-75
2022/03/08 06:52:01;;;;;;;12.93;8.03;;;0.90;99.90;;;;;;5069857;28;20531;-85
2022/03/08 06:54:28;;;;;;;10.13;7.03;;;1.00;99.90;;;;;;5076306;28;20934;-83
2022/03/08 06:56:56;;;;;;;17.17;7.83;;;1.20;99.90;;;;;;5076158;28;20453;-73
2022/03/08 06:59:24;;;;;;;11.27;7.57;;;1.20;99.90;;;;;;5076594;28;20474;-72
2022/03/08 07:01:50;;;;;;;10.17;6.80;;;1.20;99.90;;;;;;5075419;28;20458;-74
2022/03/08 07:04:17;;;;;;;7.03;6.33;;;1.30;99.90;;;;;;5076699;28;20442;-73
2022/03/08 07:06:44;;;;;;;8.47;7.17;;;1.30;99.90;;;;;;5075966;28;20440;-77
2022/03/08 07:09:11;;;;;;;8.77;7.00;;;1.40;99.90;;;;;;5076146;28;20442;-73
2022/03/08 07:11:40;;;;;;;12.10;7.40;;;1.50;99.90;;;;;;5075956;28;20466;-86
2022/03/08 07:14:08;;;;;;;7.50;6.80;;;1.40;99.90;;;;;;5076195;28;20526;-74
2022/03/08 07:16:38;;;;;;;8.60;7.03;;;1.40;99.90;;;;;;5075996;28;20450;-79
2022/03/08 07:19:05;;;;;;;10.57;6.43;;;1.50;99.90;;;;;;5074022;28;20430;-76
2022/03/08 07:21:32;;;;;;;9.93;7.30;;;1.50;99.90;;;;;;5075969;28;20473;-75
2022/03/08 07:23:59;;;;;;;9.97;7.50;;;1.50;99.90;;;;;;5072248;28;20439;-74
2022/03/08 07:26:25;;;;;;;8.17;7.30;;;1.60;99.90;;;;;;5072530;28;20434;-71
2022/03/08 07:28:52;;;;;;;9.00;6.77;;;1.70;99.90;;;;;;5071464;28;20440;-73
2022/03/08 07:31:20;;;;;;;9.23;7.20;;;1.80;99.90;;;;;;5075312;28;20431;-76
2022/03/08 07:33:47;;;;;;;9.10;6.93;;;1.90;99.90;;;;;;5074543;28;20817;-74
2022/03/08 07:36:14;;;;;;;10.47;6.80;;;2.00;99.90;;;;;;5074739;28;20465;-73
2022/03/08 07:38:42;;;;;;;13.80;7.43;;;2.10;99.90;;;;;;5075307;28;20831;-82
2022/03/08 07:41:08;;;;;;;11.10;7.00;;;2.30;99.90;;;;;;5074556;28;20969;-78
2022/03/08 07:43:35;;;;;;;10.40;7.00;;;2.30;99.90;;;;;;5075095;28;20450;-83
2022/03/08 07:46:02;;;;;;;9.30;7.43;;;2.40;99.90;;;;;;5076085;28;20448;-72
2022/03/08 07:48:31;;;;;;;13.17;6.83;;;2.50;99.90;;;;;;5074979;28;20925;-74
2022/03/08 07:50:57;;;;;;;12.40;7.63;;;2.40;99.90;;;;;;5074261;28;20499;-77
2022/03/08 07:53:24;;;;;;;8.23;7.00;;;2.40;99.90;;;;;;5074638;28;20439;-77
2022/03/08 07:55:51;;;;;;;10.27;7.30;;;2.50;99.90;;;;;;5074792;28;20435;-73
2022/03/08 07:58:19;;;;;;;9.77;7.30;;;2.70;99.90;;;;;;5073352;28;20458;-74
2022/03/08 08:00:46;;;;;;;10.47;7.53;;;2.80;99.90;;;;;;5074384;28;20229;-79
2022/03/08 08:03:13;;;;;;;12.23;7.03;;;3.00;99.90;;;;;;5074041;28;20933;-79
2022/03/08 08:05:41;;;;;;;13.47;7.93;;;3.00;99.90;;;;;;5074995;28;20438;-76
2022/03/08 08:08:08;;;;;;;9.07;7.00;;;3.10;99.90;;;;;;5075717;28;20446;-75
2022/03/08 08:10:35;;;;;;;8.60;7.70;;;3.10;99.90;;;;;;5075044;28;20447;-77
2022/03/08 08:13:02;;;;;;;7.77;7.00;;;3.20;99.90;;;;;;5075142;28;20442;-73
2022/03/08 08:15:29;;;;;;;9.50;6.67;;;3.40;99.90;;;;;;5075068;28;20468;-73
2022/03/08 08:17:56;;;;;;;11.17;7.37;;;3.40;99.90;;;;;;5075170;28;20447;-74
2022/03/08 08:20:23;;;;;;;10.30;7.63;;;3.50;99.90;;;;;;5074675;28;20933;-73
2022/03/08 08:22:51;;;;;;;9.20;7.47;;;3.70;99.90;;;;;;5074980;28;20431;-77
2022/03/08 08:25:18;;;;;;;10.75;8.63;;;3.80;99.90;;;;;;5073743;28;20438;-74
2022/03/08 08:27:45;;;;;;;10.80;7.93;;;3.80;99.90;;;;;;5074444;28;20277;-73
2022/03/08 08:30:13;;;;;;;12.17;7.60;;;3.90;99.90;;;;;;5074670;28;20531;-85
2022/03/08 08:32:41;;;;;;;7.73;6.93;;;4.00;99.90;;;;;;5074530;28;20446;-73
2022/03/08 08:35:08;;;;;;;14.83;7.50;;;4.10;99.90;;;;;;5073490;28;20443;-74
2022/03/08 08:37:36;;;;;;;7.87;7.07;;;4.10;99.90;;;;;;5074649;28;20443;-80
2022/03/08 08:40:05;;;;;;;8.43;7.27;;;4.00;99.90;;;;;;5073937;28;20945;-80
2022/03/08 08:42:32;;;;;;;11.43;7.40;;;4.10;99.90;;;;;;5074994;28;20446;-75
2022/03/08 08:44:58;;;;;;;9.17;7.53;;;4.20;99.90;;;;;;5074551;28;20446;-79
2022/03/08 08:47:25;;;;;;;7.97;7.17;;;4.20;99.90;;;;;;5074614;28;20439;-73
2022/03/08 08:49:52;;;;;;;13.77;7.90;;;4.30;99.90;;;;;;5074552;28;20432;-73
2022/03/08 08:52:19;;;;;;;9.67;7.53;;;4.30;99.90;;;;;;5074253;28;20217;-81
2022/03/08 08:54:47;;;;;;;11.30;6.97;;;4.40;99.90;;;;;;5074462;28;20431;-82
2022/03/08 08:57:15;;;;;;;7.80;6.80;;;4.60;99.90;;;;;;5072723;28;20438;-73
2022/03/08 08:59:42;;;;;;;8.40;7.13;;;4.70;99.90;;;;;;5053514;28;20440;-78
2022/03/08 09:02:10;;;;;;;10.73;7.23;;;4.70;99.50;;;;;;5054525;28;20462;-86
2022/03/08 09:04:36;;;;;;;7.57;6.50;;;4.70;99.80;;;;;;5054671;28;20459;-84
2022/03/08 09:07:04;;;;;;;16.33;6.43;;;4.90;98.60;;;;;;5054684;28;20439;-86
2022/03/08 09:09:31;;;;;;;6.33;5.73;;;5.00;97.90;;;;;;5054598;28;20436;-81
2022/03/08 09:11:58;;;;;;;7.67;6.33;;;5.10;97.10;;;;;;5053805;28;20517;-80
2022/03/08 09:14:26;;;;;;;7.23;6.47;;;5.20;97.50;;;;;;5054370;28;20435;-84
2022/03/08 09:16:56;;;;;;;9.30;6.50;;;5.30;96.50;;;;;;5054117;28;20442;-86
2022/03/08 09:19:25;;;;;;;7.77;6.60;;;5.10;96.70;;;;;;5054715;28;20442;-84
2022/03/08 09:21:52;;;;;;;7.50;6.30;;;5.20;97.20;;;;;;5054506;28;20491;-87
2022/03/08 09:24:19;;;;;;;7.30;6.17;;;5.20;96.70;;;;;;5054569;28;20435;-87
2022/03/08 09:26:46;;;;;;;12.77;6.87;;;5.30;97.00;;;;;;5054284;28;20817;-82
2022/03/08 09:29:13;;;;;;;8.75;7.35;;;5.30;97.00;;;;;;5053926;28;20444;-78
2022/03/08 09:31:41;;;;;;;9.17;6.90;;;5.50;96.60;;;;;;5053810;28;20681;-78
2022/03/08 09:34:08;;;;;;;7.63;6.87;;;5.50;96.10;;;;;;5054244;28;20653;-81
2022/03/08 09:36:35;;;;;;;13.60;6.60;;;5.60;96.10;;;;;;5053839;28;20450;-76
2022/03/08 09:39:02;;;;;;;8.10;6.70;;;5.60;96.20;;;;;;5054255;28;20800;-83
2022/03/08 09:41:29;;;;;;;7.80;6.67;;;5.60;96.60;;;;;;5053547;28;20514;-74
2022/03/08 09:43:56;;;;;;;8.13;7.32;;;5.80;96.90;;;;;;5053265;28;20436;-83
2022/03/08 09:46:23;;;;;;;12.13;6.90;;;6.00;96.10;;;;;;5053208;28;20598;-77
2022/03/08 09:48:51;;;;;;;9.40;7.00;;;6.00;96.20;;;;;;5053953;28;20199;-86
2022/03/08 09:51:18;;;;;;;8.83;7.13;;;6.10;95.60;;;;;;5055486;28;20221;-84
2022/03/08 09:53:45;;;;;;;7.10;6.43;;;6.20;95.40;;;;;;5073393;28;20197;-76
2022/03/08 09:56:13;;;;;;;26.93;8.30;;;6.20;95.30;;;;;;5073142;28;20197;-85
2022/03/08 09:58:41;;;;;;;7.43;6.70;;;6.30;95.50;;;;;;5070330;28;20251;-74
2022/03/08 10:01:08;;;;;;;9.27;7.20;;;6.40;95.50;;;;;;5070718;28;20268;-75
2022/03/08 10:03:38;;;;;;;9.07;8.18;;;6.30;95.50;;;;;;5072443;28;20462;-82
2022/03/08 10:06:12;;;;;;;8.40;7.53;;;6.30;95.30;;;;;;5073603;28;20670;-87
2022/03/08 10:08:39;;;;;;;8.90;7.30;;;6.40;94.90;;;;;;5073313;28;20201;-74
2022/03/08 10:11:09;;;;;;;9.23;7.07;;;6.40;95.20;;;;;;5070918;28;20318;-81
2022/03/08 10:13:39;;;;;;;8.07;7.27;;;6.60;95.10;;;;;;5052953;28;20670;-79
2022/03/08 10:16:09;;;;;;;7.70;6.90;;;6.70;94.80;;;;;;5052746;28;20780;-79
2022/03/08 10:18:38;;;;;;;8.97;7.40;;;6.80;95.10;;;;;;5053522;28;20202;-72
2022/03/08 10:21:05;;;;;;;8.80;7.00;;;7.00;95.10;;;;;;5052932;28;20723;-82
2022/03/08 10:23:43;;;;;;;10.52;7.68;;;7.00;94.50;;;;;;5052653;28;20433;-84
2022/03/08 10:26:12;;;;;;;8.27;7.40;;;7.00;94.30;;;;;;5053184;28;20187;-79
2022/03/08 10:28:47;;;;;;;12.90;7.07;;;7.00;94.80;;;;;;5052662;28;20214;-85
2022/03/08 10:31:16;;;;;;;12.30;7.30;;;7.20;94.40;;;;;;5052729;28;20205;-83
2022/03/08 10:33:44;;;;;;;8.87;7.67;;;7.20;94.00;;;;;;5052984;28;20206;-82
2022/03/08 10:36:17;;;;;;;9.03;8.13;;;7.20;94.10;;;;;;5053374;28;20206;-74
2022/03/08 10:39:08;;;;;;;14.43;7.27;;;7.20;93.70;;;;;;5053144;28;20294;-76
2022/03/08 10:41:40;;;;;;;12.00;7.63;;;7.30;93.70;;;;;;5052859;28;20229;-73
2022/03/08 10:44:07;;;;;;;8.20;7.40;;;7.50;93.90;;;;;;5052890;28;20198;-73
2022/03/08 10:46:34;;;;;;;9.37;8.37;;;7.60;93.30;;;;;;5052962;28;20429;-81
2022/03/08 10:49:11;;;;;;;14.57;8.27;;;7.60;93.70;;;;;;5053297;28;20443;-73
2022/03/08 10:51:38;;;;;;;9.17;7.80;;;7.80;93.30;;;;;;5052595;28;20264;-73
2022/03/08 10:54:13;;;;;;;11.97;8.10;;;7.80;93.10;;;;;;5052363;28;20693;-74
2022/03/08 10:56:44;;;;;;;8.83;7.90;;;7.70;93.20;;;;;;5065489;28;20193;-76
2022/03/08 10:59:12;;;;;;;8.73;7.77;;;7.80;93.10;;;;;;5072796;28;20197;-75
2022/03/08 11:01:39;;;;;;;13.37;7.97;;;7.70;92.90;;;;;;5072998;28;20245;-75
2022/03/08 11:04:17;;;;;;;9.90;7.47;;;8.00;93.10;;;;;;5072814;28;20216;-76
2022/03/08 11:06:46;;;;;;;12.10;7.53;;;8.00;92.70;;;;;;5072779;28;20193;-73
2022/03/08 11:09:15;;;;;;;10.43;7.90;;;8.10;92.80;;;;;;5072872;28;20194;-73
2022/03/08 11:11:43;;;;;;;10.65;9.45;;;8.00;92.80;;;;;;5070561;28;20431;-75
2022/03/08 11:14:10;;;;;;;8.73;7.87;;;8.20;92.50;;;;;;5066964;28;20201;-81
2022/03/08 11:16:38;;;;;;;9.23;7.43;;;8.30;92.50;;;;;;5073017;28;20291;-77
2022/03/08 11:19:06;;;;;;;9.10;8.20;;;8.40;92.80;;;;;;5074359;28;20194;-78
2022/03/08 11:21:34;;;;;;;8.27;7.47;;;8.60;91.70;;;;;;5073884;28;20571;-82
2022/03/08 11:24:03;;;;;;;10.47;7.27;;;8.60;91.80;;;;;;5075673;28;20232;-82
2022/03/08 11:26:32;;;;;;;8.43;7.47;;;8.60;91.90;;;;;;5076789;28;20194;-86
2022/03/08 11:29:00;;;;;;;10.53;7.37;;;8.60;92.10;;;;;;5076411;28;20657;-78
2022/03/08 11:31:32;;;;;;;8.50;7.07;;;8.70;92.00;;;;;;5076725;28;20202;-80
2022/03/08 11:34:08;;;;;;;11.30;7.30;;;8.70;91.60;;;;;;5076049;28;20206;-81
2022/03/08 11:36:39;;;;;;;9.38;8.48;;;8.80;92.00;;;;;;5072897;28;20476;-78
2022/03/08 11:39:19;;;;;;;8.83;7.93;;;9.10;91.40;;;;;;5047411;28;20256;-76
2022/03/08 11:41:49;;;;;;;8.60;7.70;;;9.20;91.10;;;;;;5055972;28;20390;-79
2022/03/08 11:44:30;;;;;;;8.73;7.60;;;9.20;90.90;;;;;;5056552;28;20550;-88
2022/03/08 11:47:14;;;;;;;11.97;7.23;;;9.20;91.10;;;;;;5056159;28;20226;-81
2022/03/08 11:49:47;;;;;;;11.93;7.97;;;9.20;90.60;;;;;;5056377;28;20244;-78
2022/03/08 11:52:19;;;;;;;8.57;7.70;;;9.20;90.40;;;;;;5056008;28;20214;-86
2022/03/08 11:54:54;;;;;;;9.60;7.47;;;9.30;90.90;;;;;;5056200;28;20210;-83
2022/03/08 11:58:06;;;;;;;9.73;7.60;;;9.30;90.40;;;;;;5055910;28;20186;-77
2022/03/08 12:00:37;;;;;;;11.27;8.30;;;9.40;90.30;;;;;;5055980;28;20615;-85
2022/03/08 12:03:08;;;;;;;10.37;8.20;;;9.30;90.10;;;;;;5055925;28;20615;-79
2022/03/08 12:05:58;;;;;;;9.00;7.83;;;9.30;90.50;;;;;;5055946;28;20214;-76
2022/03/08 12:09:07;;;;;;;12.00;8.80;;;9.40;90.10;;;;;;5056235;28;20208;-82
2022/03/08 12:11:48;;;;;;;9.33;7.70;;;9.50;90.30;;;;;;5055372;28;20213;-76
2022/03/08 12:14:17;;;;;;;10.90;7.17;;;9.60;89.70;;;;;;5056044;28;20572;-81
2022/03/08 12:16:48;;;;;;;8.20;7.40;;;9.60;88.60;;;;;;5055575;28;20716;-82
2022/03/08 12:19:30;;;;;;;10.97;7.73;;;9.60;88.70;;;;;;5055472;28;20198;-75
2022/03/08 12:21:57;;;;;;;7.93;6.87;;;9.70;87.60;;;;;;5054823;28;20230;-74
2022/03/08 12:24:25;;;;;;;10.53;7.57;;;9.80;87.40;;;;;;5055082;28;20217;-75
2022/03/08 12:26:58;;;;;;;8.17;7.40;;;9.80;87.20;;;;;;5055168;28;20198;-75
2022/03/08 12:29:27;;;;;;;8.17;7.37;;;9.90;87.10;;;;;;5054890;28;20202;-80
2022/03/08 12:32:24;;;;;;;8.13;7.30;;;9.90;87.30;;;;;;5055220;28;20194;-76
2022/03/08 12:34:54;;;;;;;7.60;6.90;;;10.00;84.40;;;;;;5053926;28;20233;-76
2022/03/08 12:37:23;;;;;;;8.70;7.27;;;10.00;85.80;;;;;;5054605;28;20654;-74
2022/03/08 12:39:56;;;;;;;11.67;7.40;;;10.00;85.60;;;;;;5054364;28;20213;-74
2022/03/08 12:42:27;;;;;;;9.47;7.53;;;10.00;84.80;;;;;;5055016;28;20221;-79
2022/03/08 12:44:58;;;;;;;8.83;7.30;;;10.10;84.50;;;;;;5054924;28;20198;-77
2022/03/08 12:47:28;;;;;;;9.37;7.37;;;10.20;84.40;;;;;;5055539;28;20191;-80
2022/03/08 12:49:56;;;;;;;8.90;7.95;;;10.20;83.60;;;;;;5054121;28;20422;-86
2022/03/08 12:52:23;;;;;;;11.10;8.23;;;10.40;83.40;;;;;;5055199;28;20210;-77
2022/03/08 12:54:53;;;;;;;9.13;6.87;;;10.30;84.30;;;;;;5067232;28;20205;-76
2022/03/08 12:57:20;;;;;;;8.20;7.10;;;10.40;84.80;;;;;;5074733;28;20198;-81